createdAt,value
2018-07-07T00:00:23.413Z,15.20
2018-07-07T00:02:52.403Z,15.10
2018-07-07T00:05:20.330Z,15.10
2018-07-07T00:07:48.426Z,15.20
2018-07-07T00:10:16.418Z,15.10
2018-07-07T00:12:44.644Z,15.20
2018-07-07T00:15:16.658Z,15.20
2018-07-07T00:17:45.348Z,15.10
2018-07-07T00:20:13.524Z,15.00
2018-07-07T00:25:39.915Z,14.90
2018-07-07T00:28:07.876Z,14.80
2018-07-07T00:30:35.748Z,14.80
2018-07-07T00:33:03.578Z,14.80
2018-07-07T00:35:31.443Z,14.80
2018-07-07T00:38:01.281Z,14.80
2018-07-07T00:40:29.183Z,14.60
2018-07-07T00:42:57.997Z,14.60
2018-07-07T00:45:25.752Z,14.50
2018-07-07T00:47:53.546Z,14.40
2018-07-07T00:50:21.320Z,14.40
2018-07-07T00:52:49.167Z,14.40
2018-07-07T00:55:17.103Z,14.40
2018-07-07T00:57:44.927Z,14.30
2018-07-07T01:00:12.732Z,14.20
2018-07-07T01:02:40.510Z,14.20
2018-07-07T01:05:18.327Z,14.20
2018-07-07T01:07:46.088Z,14.10
2018-07-07T01:10:14.888Z,14.00
2018-07-07T01:12:51.826Z,14.10
2018-07-07T01:15:19.760Z,14.10
2018-07-07T01:17:47.741Z,14.00
2018-07-07T01:20:15.663Z,14.00
2018-07-07T01:22:43.670Z,14.00
2018-07-07T01:25:11.558Z,13.90
2018-07-07T01:27:39.487Z,14.00
2018-07-07T01:30:07.364Z,13.90
2018-07-07T01:32:35.347Z,13.80
2018-07-07T01:35:03.238Z,13.70
2018-07-07T01:37:33.260Z,13.60
2018-07-07T01:40:01.129Z,13.60
2018-07-07T01:42:29.073Z,13.50
2018-07-07T01:44:57.016Z,13.40
2018-07-07T01:47:26.049Z,13.50
2018-07-07T01:49:53.976Z,13.60
2018-07-07T01:52:21.947Z,13.60
2018-07-07T01:54:49.909Z,13.70
2018-07-07T01:57:17.896Z,13.60
2018-07-07T01:59:45.855Z,13.60
2018-07-07T02:02:13.838Z,13.50
2018-07-07T02:04:41.770Z,13.50
2018-07-07T02:07:09.784Z,13.60
2018-07-07T02:09:37.662Z,13.60
2018-07-07T02:14:39.021Z,13.60
2018-07-07T02:17:06.829Z,13.50
2018-07-07T02:19:34.610Z,13.50
2018-07-07T02:22:02.443Z,13.50
2018-07-07T02:24:30.262Z,13.40
2018-07-07T02:30:36.609Z,13.40
2018-07-07T02:33:04.447Z,13.60
2018-07-07T02:35:32.246Z,13.60
2018-07-07T02:38:00.049Z,13.50
2018-07-07T02:40:27.969Z,13.40
2018-07-07T02:42:55.808Z,13.40
2018-07-07T02:45:23.591Z,13.40
2018-07-07T02:47:51.395Z,13.40
2018-07-07T02:50:19.169Z,13.40
2018-07-07T02:52:46.922Z,13.50
2018-07-07T02:55:14.764Z,13.50
2018-07-07T02:57:42.686Z,13.60
2018-07-07T03:00:10.473Z,13.50
2018-07-07T03:02:38.245Z,13.50
2018-07-07T03:05:06.006Z,13.50
2018-07-07T03:07:33.811Z,13.40
2018-07-07T03:10:01.871Z,13.30
2018-07-07T03:12:29.717Z,13.20
2018-07-07T03:14:57.524Z,13.20
2018-07-07T03:17:25.336Z,13.30
2018-07-07T03:19:53.140Z,13.30
2018-07-07T03:22:20.931Z,13.30
2018-07-07T03:24:48.757Z,13.30
2018-07-07T03:27:16.523Z,13.20
2018-07-07T03:29:44.251Z,13.00
2018-07-07T03:32:12.005Z,12.90
2018-07-07T03:34:39.815Z,12.80
2018-07-07T03:37:07.617Z,12.70
2018-07-07T03:39:35.406Z,12.80
2018-07-07T03:42:03.174Z,12.70
2018-07-07T03:44:30.944Z,12.80
2018-07-07T03:46:58.758Z,12.80
2018-07-07T03:49:26.547Z,12.90
2018-07-07T03:51:54.296Z,13.00
2018-07-07T03:54:22.098Z,13.10
2018-07-07T03:56:49.920Z,13.10
2018-07-07T03:59:18.711Z,13.20
2018-07-07T04:01:46.505Z,13.20
2018-07-07T04:04:14.306Z,13.10
2018-07-07T04:06:42.072Z,13.00
2018-07-07T04:09:26.598Z,13.10
2018-07-07T04:11:54.382Z,13.20
2018-07-07T04:14:22.144Z,13.10
2018-07-07T04:16:49.912Z,13.10
2018-07-07T04:19:17.704Z,13.20
2018-07-07T04:21:45.486Z,13.30
2018-07-07T04:24:13.277Z,13.30
2018-07-07T04:26:41.054Z,13.30
2018-07-07T04:29:08.814Z,13.50
2018-07-07T04:31:36.641Z,13.70
2018-07-07T04:34:04.425Z,13.90
2018-07-07T04:36:32.221Z,14.00
2018-07-07T04:38:59.977Z,14.20
2018-07-07T04:41:28.750Z,14.40
2018-07-07T04:43:56.558Z,14.50
2018-07-07T04:46:25.373Z,14.70
2018-07-07T04:48:53.283Z,14.90
2018-07-07T04:51:21.241Z,15.10
2018-07-07T04:53:49.156Z,15.20
2018-07-07T04:56:17.146Z,15.40
2018-07-07T04:58:45.047Z,15.60
2018-07-07T05:01:13.021Z,15.80
2018-07-07T05:03:40.941Z,16.00
2018-07-07T05:06:08.864Z,16.10
2018-07-07T05:08:36.739Z,16.20
2018-07-07T05:11:04.760Z,16.20
2018-07-07T05:13:32.678Z,16.20
2018-07-07T05:16:00.797Z,16.30
2018-07-07T05:18:29.850Z,16.40
2018-07-07T05:20:57.970Z,16.60
2018-07-07T05:23:25.895Z,16.80
2018-07-07T05:25:53.901Z,17.00
2018-07-07T05:28:21.788Z,17.20
2018-07-07T05:30:49.840Z,17.40
2018-07-07T05:33:17.818Z,17.60
2018-07-07T05:35:47.069Z,17.80
2018-07-07T05:38:16.021Z,17.90
2018-07-07T05:40:44.090Z,18.00
2018-07-07T05:43:12.242Z,18.10
2018-07-07T05:45:40.275Z,18.00
2018-07-07T05:48:08.209Z,18.10
2018-07-07T05:50:36.046Z,18.30
2018-07-07T05:53:04.024Z,18.40
2018-07-07T05:55:31.792Z,18.60
2018-07-07T05:57:59.603Z,18.80
2018-07-07T06:00:27.440Z,19.00
2018-07-07T06:02:55.307Z,19.00
2018-07-07T06:05:23.107Z,19.10
2018-07-07T06:07:50.970Z,19.20
2018-07-07T06:10:18.767Z,19.40
2018-07-07T06:12:46.601Z,19.60
2018-07-07T06:15:14.506Z,19.70
2018-07-07T06:17:44.535Z,19.70
2018-07-07T06:20:12.404Z,19.80
2018-07-07T06:22:40.366Z,19.90
2018-07-07T06:25:08.061Z,20.00
2018-07-07T06:27:35.896Z,20.10
2018-07-07T06:30:03.973Z,20.20
2018-07-07T06:32:31.773Z,20.20
2018-07-07T06:35:39.397Z,20.20
2018-07-07T06:38:07.503Z,20.20
2018-07-07T06:40:35.368Z,20.30
2018-07-07T06:43:03.281Z,20.50
2018-07-07T06:45:31.229Z,20.70
2018-07-07T06:47:59.253Z,21.00
2018-07-07T06:50:27.202Z,21.10
2018-07-07T06:52:55.130Z,21.00
2018-07-07T06:55:23.131Z,20.90
2018-07-07T06:57:51.165Z,20.80
2018-07-07T07:00:19.283Z,20.70
2018-07-07T07:02:47.254Z,20.60
2018-07-07T07:05:15.366Z,20.50
2018-07-07T07:07:43.283Z,20.50
2018-07-07T07:10:11.327Z,20.50
2018-07-07T07:12:39.266Z,20.50
2018-07-07T07:15:08.332Z,20.50
2018-07-07T07:17:36.324Z,20.50
2018-07-07T07:20:04.469Z,20.40
2018-07-07T07:22:32.375Z,20.30
2018-07-07T07:25:00.403Z,20.20
2018-07-07T07:27:28.356Z,20.20
2018-07-07T07:29:56.307Z,20.30
2018-07-07T07:32:24.246Z,20.40
2018-07-07T07:34:52.231Z,20.60
2018-07-07T07:39:53.760Z,20.80
2018-07-07T07:42:21.614Z,20.90
2018-07-07T07:44:49.482Z,21.00
2018-07-07T07:47:17.311Z,21.10
2018-07-07T07:49:45.108Z,21.20
2018-07-07T07:54:46.632Z,21.60
2018-07-07T07:57:14.443Z,21.70
2018-07-07T07:59:42.387Z,21.70
2018-07-07T08:02:10.197Z,21.80
2018-07-07T08:04:38.023Z,21.80
2018-07-07T08:07:05.885Z,22.00
2018-07-07T08:09:33.676Z,22.20
2018-07-07T08:12:01.455Z,22.20
2018-07-07T08:14:29.232Z,22.30
2018-07-07T08:16:57.048Z,22.50
2018-07-07T08:19:24.918Z,22.60
2018-07-07T08:21:52.754Z,22.40
2018-07-07T08:24:22.513Z,22.40
2018-07-07T08:26:50.347Z,22.60
2018-07-07T08:29:18.263Z,23.00
2018-07-07T08:31:46.113Z,23.00
2018-07-07T08:34:14.107Z,23.00
2018-07-07T08:36:41.875Z,23.10
2018-07-07T08:39:09.686Z,23.20
2018-07-07T08:41:37.428Z,23.40
2018-07-07T08:44:12.351Z,23.40
2018-07-07T08:46:41.481Z,23.30
2018-07-07T08:49:09.487Z,23.60
2018-07-07T08:51:37.412Z,23.90
2018-07-07T08:54:05.422Z,24.30
2018-07-07T08:56:33.383Z,24.50
2018-07-07T08:59:01.415Z,24.50
2018-07-07T09:01:29.338Z,24.80
2018-07-07T09:03:57.377Z,24.60
2018-07-07T09:06:26.974Z,24.50
2018-07-07T09:08:55.000Z,24.60
2018-07-07T09:11:22.913Z,24.50
2018-07-07T09:13:50.857Z,24.80
2018-07-07T09:16:18.810Z,24.30
2018-07-07T09:18:46.957Z,24.80
2018-07-07T09:21:14.888Z,25.10
2018-07-07T09:23:43.049Z,25.10
2018-07-07T09:26:11.049Z,25.70
2018-07-07T09:28:39.121Z,25.90
2018-07-07T09:31:07.596Z,26.30
2018-07-07T09:33:35.592Z,25.90
2018-07-07T09:36:03.599Z,26.00
2018-07-07T09:38:31.728Z,26.70
2018-07-07T09:40:59.620Z,26.50
2018-07-07T09:43:27.607Z,25.80
2018-07-07T09:48:28.692Z,23.90
2018-07-07T09:50:56.655Z,23.70
2018-07-07T09:53:24.406Z,24.50
2018-07-07T09:55:52.378Z,25.10
2018-07-07T09:58:20.140Z,24.60
2018-07-07T10:00:48.123Z,24.60
2018-07-07T10:03:15.945Z,25.20
2018-07-07T10:05:43.947Z,25.80
2018-07-07T10:08:11.781Z,26.10
2018-07-07T10:10:39.724Z,26.30
2018-07-07T10:13:07.559Z,26.70
2018-07-07T10:15:48.433Z,27.00
2018-07-07T10:18:16.233Z,27.20
2018-07-07T10:20:44.076Z,27.20
2018-07-07T10:23:11.824Z,27.20
2018-07-07T10:25:39.542Z,26.80
2018-07-07T10:28:07.382Z,26.70
2018-07-07T10:30:35.173Z,26.80
2018-07-07T10:33:03.367Z,26.90
2018-07-07T10:35:31.164Z,27.10
2018-07-07T10:37:59.022Z,27.20
2018-07-07T10:40:27.853Z,27.60
2018-07-07T10:42:55.604Z,26.10
2018-07-07T10:45:23.444Z,25.80
2018-07-07T10:47:51.279Z,26.40
2018-07-07T10:50:19.041Z,26.80
2018-07-07T10:52:46.787Z,26.70
2018-07-07T10:55:14.612Z,27.10
2018-07-07T10:57:42.390Z,27.70
2018-07-07T11:00:10.245Z,27.70
2018-07-07T11:02:38.106Z,27.40
2018-07-07T11:05:06.080Z,26.50
2018-07-07T11:07:33.857Z,27.20
2018-07-07T11:10:01.676Z,28.50
2018-07-07T11:12:29.459Z,28.60
2018-07-07T11:14:57.263Z,27.50
2018-07-07T11:17:25.138Z,27.60
2018-07-07T11:22:47.491Z,27.30
2018-07-07T11:25:15.264Z,28.10
2018-07-07T11:27:43.085Z,29.10
2018-07-07T11:30:10.879Z,30.00
2018-07-07T11:32:38.615Z,29.80
2018-07-07T11:35:06.410Z,29.50
2018-07-07T11:37:34.228Z,30.00
2018-07-07T11:40:02.054Z,30.00
2018-07-07T11:42:29.926Z,29.50
2018-07-07T11:44:57.837Z,29.80
2018-07-07T11:47:25.666Z,29.90
2018-07-07T11:49:53.537Z,28.60
2018-07-07T11:52:21.420Z,29.00
2018-07-07T11:54:49.974Z,29.40
2018-07-07T11:57:18.916Z,29.40
2018-07-07T11:59:46.732Z,28.70
2018-07-07T12:02:16.612Z,29.60
2018-07-07T12:04:44.536Z,29.40
2018-07-07T12:07:12.337Z,29.90
2018-07-07T12:09:40.144Z,29.10
2018-07-07T12:12:07.996Z,29.40
2018-07-07T12:14:35.901Z,29.70
2018-07-07T12:17:03.942Z,29.90
2018-07-07T12:19:31.765Z,30.20
2018-07-07T12:21:59.639Z,30.00
2018-07-07T12:27:59.994Z,30.90
2018-07-07T12:30:27.865Z,31.90
2018-07-07T12:32:57.511Z,33.00
2018-07-07T12:35:25.338Z,33.50
2018-07-07T12:37:53.138Z,33.20
2018-07-07T12:40:21.118Z,32.00
2018-07-07T12:42:49.079Z,32.30
2018-07-07T12:45:17.091Z,31.60
2018-07-07T12:47:44.973Z,31.10
2018-07-07T12:50:13.084Z,30.80
2018-07-07T12:52:41.033Z,31.00
2018-07-07T12:55:09.035Z,32.00
2018-07-07T12:57:37.225Z,31.80
2018-07-07T13:00:05.365Z,32.20
2018-07-07T13:02:33.282Z,32.40
2018-07-07T13:05:01.266Z,32.90
2018-07-07T13:07:29.220Z,32.40
2018-07-07T13:09:57.256Z,32.80
2018-07-07T13:12:25.164Z,33.30
2018-07-07T13:14:53.172Z,33.30
2018-07-07T13:17:21.103Z,33.20
2018-07-07T13:19:49.094Z,33.50
2018-07-07T13:22:17.186Z,32.90
2018-07-07T13:24:45.276Z,33.00
2018-07-07T13:27:13.226Z,32.60
2018-07-07T13:29:41.224Z,32.60
2018-07-07T13:32:09.628Z,32.80
2018-07-07T13:34:38.296Z,30.70
2018-07-07T13:37:06.400Z,30.70
2018-07-07T13:39:37.713Z,32.10
2018-07-07T13:42:06.691Z,33.00
2018-07-07T13:44:47.721Z,33.20
2018-07-07T13:47:15.508Z,33.00
2018-07-07T13:49:43.245Z,32.40
2018-07-07T13:52:10.996Z,32.20
2018-07-07T13:54:38.754Z,31.90
2018-07-07T13:57:06.567Z,31.00
2018-07-07T13:59:34.321Z,32.00
2018-07-07T14:02:02.156Z,32.50
2018-07-07T14:04:29.914Z,32.50
2018-07-07T14:07:05.481Z,32.70
2018-07-07T14:09:33.411Z,33.00
2018-07-07T14:12:02.170Z,33.30
2018-07-07T14:14:30.858Z,33.30
2018-07-07T14:16:58.730Z,31.70
2018-07-07T14:19:26.495Z,30.70
2018-07-07T14:21:54.356Z,31.90
2018-07-07T14:24:22.183Z,31.90
2018-07-07T14:26:51.108Z,32.20
2018-07-07T14:29:18.902Z,31.80
2018-07-07T14:31:46.806Z,32.60
2018-07-07T14:34:14.709Z,33.00
2018-07-07T14:36:42.696Z,33.50
2018-07-07T14:39:10.594Z,33.20
2018-07-07T14:41:38.512Z,32.90
2018-07-07T14:44:06.491Z,32.20
2018-07-07T14:46:35.000Z,31.70
2018-07-07T14:49:03.032Z,32.20
2018-07-07T14:51:30.946Z,32.40
2018-07-07T14:53:58.869Z,32.30
2018-07-07T14:56:27.385Z,32.00
2018-07-07T14:58:55.307Z,31.60
2018-07-07T15:01:23.177Z,31.90
2018-07-07T15:03:51.058Z,32.50
2018-07-07T15:06:18.978Z,32.40
2018-07-07T15:08:46.905Z,32.10
2018-07-07T15:11:14.879Z,33.10
2018-07-07T15:13:42.860Z,33.20
2018-07-07T15:16:10.918Z,33.20
2018-07-07T15:18:38.832Z,33.20
2018-07-07T15:21:08.851Z,33.60
2018-07-07T15:23:36.779Z,33.00
2018-07-07T15:26:06.832Z,32.70
2018-07-07T15:28:34.750Z,32.70
2018-07-07T15:31:06.747Z,32.10
2018-07-07T15:34:23.619Z,31.80
2018-07-07T15:36:51.539Z,31.60
2018-07-07T15:39:19.295Z,31.60
2018-07-07T15:41:47.238Z,32.00
2018-07-07T15:44:15.663Z,32.30
2018-07-07T15:46:43.451Z,31.70
2018-07-07T15:49:11.238Z,31.50
2018-07-07T15:51:38.973Z,31.10
2018-07-07T15:54:06.799Z,30.90
2018-07-07T15:56:34.585Z,31.40
2018-07-07T15:59:04.336Z,31.60
2018-07-07T16:01:32.146Z,32.20
2018-07-07T16:04:00.005Z,32.20
2018-07-07T16:06:28.140Z,31.80
2018-07-07T16:08:56.175Z,31.60
2018-07-07T16:11:24.057Z,31.50
2018-07-07T16:13:52.068Z,31.60
2018-07-07T16:16:19.953Z,31.70
2018-07-07T16:18:47.990Z,31.40
2018-07-07T16:21:16.111Z,31.50
2018-07-07T16:23:44.282Z,31.90
2018-07-07T16:26:12.222Z,31.60
2018-07-07T16:28:40.255Z,31.40
2018-07-07T16:31:08.248Z,31.10
2018-07-07T16:33:36.309Z,31.40
2018-07-07T16:36:04.334Z,30.80
2018-07-07T16:38:32.473Z,30.80
2018-07-07T16:41:00.460Z,30.60
2018-07-07T16:43:28.746Z,30.30
2018-07-07T16:45:56.843Z,30.00
2018-07-07T16:48:24.897Z,30.00
2018-07-07T16:50:52.885Z,30.10
2018-07-07T16:53:20.958Z,30.10
2018-07-07T16:55:48.909Z,30.00
2018-07-07T16:58:17.014Z,29.90
2018-07-07T17:00:45.302Z,30.00
2018-07-07T17:03:13.837Z,29.80
2018-07-07T17:05:41.973Z,29.90
2018-07-07T17:08:09.951Z,29.80
2018-07-07T17:10:37.864Z,29.40
2018-07-07T17:13:05.714Z,29.10
2018-07-07T17:15:33.709Z,29.20
2018-07-07T17:18:02.772Z,29.10
2018-07-07T17:20:30.760Z,29.30
2018-07-07T17:22:59.808Z,29.20
2018-07-07T17:25:27.705Z,29.00
2018-07-07T17:27:55.486Z,28.50
2018-07-07T17:30:23.515Z,28.00
2018-07-07T17:32:51.341Z,27.60
2018-07-07T17:35:20.280Z,27.10
2018-07-07T17:37:48.152Z,27.00
2018-07-07T17:40:17.210Z,26.80
2018-07-07T17:42:45.056Z,26.70
2018-07-07T17:45:12.897Z,26.70
2018-07-07T17:47:40.851Z,26.70
2018-07-07T17:50:10.379Z,26.60
2018-07-07T17:52:39.015Z,26.60
2018-07-07T17:55:07.935Z,26.40
2018-07-07T17:57:37.665Z,26.40
2018-07-07T18:00:05.877Z,26.30
2018-07-07T18:02:33.658Z,26.30
2018-07-07T18:05:01.915Z,26.20
2018-07-07T18:07:29.676Z,26.10
2018-07-07T18:09:57.606Z,26.20
2018-07-07T18:12:25.618Z,26.40
2018-07-07T18:14:53.799Z,26.20
2018-07-07T18:17:21.668Z,25.90
2018-07-07T18:19:50.571Z,25.80
2018-07-07T18:22:18.517Z,25.70
2018-07-07T18:24:46.310Z,25.60
2018-07-07T18:27:14.213Z,25.50
2018-07-07T18:30:17.396Z,25.50
2018-07-07T18:32:45.197Z,25.50
2018-07-07T18:35:12.992Z,25.40
2018-07-07T18:37:40.964Z,25.20
2018-07-07T18:40:08.960Z,25.00
2018-07-07T18:42:36.847Z,24.90
2018-07-07T18:45:04.805Z,24.90
2018-07-07T18:47:32.612Z,24.80
2018-07-07T18:50:00.503Z,24.70
2018-07-07T18:52:28.320Z,24.60
2018-07-07T18:54:56.159Z,24.50
2018-07-07T18:57:24.947Z,24.30
2018-07-07T18:59:52.695Z,24.20
2018-07-07T19:02:20.535Z,24.00
2018-07-07T19:04:48.330Z,23.80
2018-07-07T19:07:25.146Z,23.70
2018-07-07T19:09:53.109Z,23.60
2018-07-07T19:12:20.927Z,23.60
2018-07-07T19:14:49.044Z,23.40
2018-07-07T19:17:17.022Z,23.30
2018-07-07T19:19:44.969Z,23.30
2018-07-07T19:22:18.576Z,23.20
2018-07-07T19:24:51.979Z,23.00
2018-07-07T19:27:19.942Z,22.90
2018-07-07T19:29:47.933Z,22.80
2018-07-07T19:32:21.404Z,22.80
2018-07-07T19:34:54.879Z,22.80
2018-07-07T19:37:22.914Z,22.60
2018-07-07T19:39:51.901Z,22.50
2018-07-07T19:42:19.844Z,22.50
2018-07-07T19:44:47.868Z,22.30
2018-07-07T19:47:15.777Z,22.20
2018-07-07T19:49:44.864Z,22.10
2018-07-07T19:52:12.780Z,21.90
2018-07-07T19:54:40.773Z,21.90
2018-07-07T19:57:08.676Z,21.80
2018-07-07T19:59:36.685Z,21.70
2018-07-07T20:02:04.626Z,21.50
2018-07-07T20:04:32.609Z,21.40
2018-07-07T20:07:00.508Z,21.40
2018-07-07T20:09:28.520Z,21.20
2018-07-07T20:11:56.446Z,21.00
2018-07-07T20:14:26.550Z,20.90
2018-07-07T20:17:00.412Z,20.80
2018-07-07T20:19:32.985Z,20.70
2018-07-07T20:22:02.185Z,20.60
2018-07-07T20:24:32.225Z,20.60
2018-07-07T20:27:05.716Z,20.50
2018-07-07T20:29:34.678Z,20.40
2018-07-07T20:32:10.262Z,20.30
2018-07-07T20:34:38.180Z,20.20
2018-07-07T20:37:06.250Z,20.10
2018-07-07T20:39:34.179Z,19.90
2018-07-07T20:42:04.239Z,19.80
2018-07-07T20:44:32.136Z,19.70
2018-07-07T20:47:00.147Z,19.60
2018-07-07T20:49:28.024Z,19.50
2018-07-07T20:51:55.931Z,19.50
2018-07-07T20:54:23.903Z,19.50
2018-07-07T20:56:51.914Z,19.40
2018-07-07T20:59:19.861Z,19.30
2018-07-07T21:01:47.925Z,19.10
2018-07-07T21:04:15.801Z,19.00
2018-07-07T21:06:43.835Z,19.00
2018-07-07T21:09:11.772Z,19.00
2018-07-07T21:11:39.759Z,18.80
2018-07-07T21:14:07.689Z,18.80
2018-07-07T21:16:35.706Z,18.80
2018-07-07T21:19:03.731Z,18.80
2018-07-07T21:21:31.579Z,18.90
2018-07-07T21:23:59.446Z,18.90
2018-07-07T21:26:48.511Z,18.90
2018-07-07T21:29:16.347Z,18.90
2018-07-07T21:31:44.030Z,18.80
2018-07-07T21:34:11.831Z,18.80
2018-07-07T21:36:39.571Z,18.70
2018-07-07T21:39:07.399Z,18.80
2018-07-07T21:41:35.196Z,18.80
2018-07-07T21:44:03.059Z,18.80
2018-07-07T21:46:51.581Z,18.70
2018-07-07T21:49:19.524Z,18.60
2018-07-07T21:51:47.434Z,18.50
2018-07-07T21:54:15.237Z,18.50
2018-07-07T21:56:43.141Z,18.50
2018-07-07T21:59:17.298Z,18.40
2018-07-07T22:01:56.526Z,18.40
2018-07-07T22:04:30.777Z,18.40
2018-07-07T22:07:04.654Z,18.50
2018-07-07T22:09:33.456Z,18.60
2018-07-07T22:12:01.330Z,18.60
2018-07-07T22:14:29.349Z,18.70
2018-07-07T22:16:57.464Z,18.70
2018-07-07T22:19:25.700Z,18.80
2018-07-07T22:22:00.659Z,18.80
2018-07-07T22:24:28.528Z,18.70
2018-07-07T22:27:04.235Z,18.50
2018-07-07T22:29:32.136Z,18.30
2018-07-07T22:32:02.253Z,18.20
2018-07-07T22:34:34.322Z,18.10
2018-07-07T22:37:02.186Z,18.00
2018-07-07T22:39:33.257Z,18.00
2018-07-07T22:42:02.117Z,17.90
2018-07-07T22:44:30.234Z,17.90
2018-07-07T22:46:58.173Z,17.90
2018-07-07T22:49:26.585Z,17.90
2018-07-07T22:51:54.497Z,18.00
2018-07-07T22:54:22.303Z,18.10
2018-07-07T22:56:50.334Z,18.30
2018-07-07T22:59:18.165Z,18.40
2018-07-07T23:01:45.963Z,18.50
2018-07-07T23:04:13.757Z,18.60
2018-07-07T23:10:26.015Z,18.60
2018-07-07T23:12:53.839Z,18.50
2018-07-07T23:15:21.678Z,18.50
2018-07-07T23:17:49.490Z,18.50
2018-07-07T23:20:17.326Z,18.60
2018-07-07T23:22:53.491Z,18.60
2018-07-07T23:25:21.349Z,18.60
2018-07-07T23:27:49.969Z,18.50
2018-07-07T23:30:18.157Z,18.50
2018-07-07T23:32:46.106Z,18.50
2018-07-07T23:35:14.093Z,18.50
2018-07-07T23:37:42.294Z,18.60
2018-07-07T23:40:10.572Z,18.60
2018-07-07T23:42:39.184Z,18.60
2018-07-07T23:45:07.606Z,18.70
2018-07-07T23:47:35.424Z,18.70
2018-07-07T23:50:03.518Z,18.70
2018-07-07T23:52:31.430Z,18.70
2018-07-07T23:54:59.373Z,18.60
2018-07-07T23:57:27.319Z,18.60
2018-07-07T23:59:55.739Z,18.60
